sensor_id;sensor_type;location;lat;lon;timestamp;P1;durP1;ratioP1;P2;durP2;ratioP2
43580;SDS011;29175;51.030;4.606;2022-08-07T00:01:14;8.25;;;3.03;;
43580;SDS011;29175;51.030;4.606;2022-08-07T00:03:45;4.03;;;2.30;;
43580;SDS011;29175;51.030;4.606;2022-08-07T00:06:14;6.20;;;2.75;;
43580;SDS011;29175;51.030;4.606;2022-08-07T00:08:41;3.75;;;2.63;;
43580;SDS011;29175;51.030;4.606;2022-08-07T00:13:42;7.50;;;2.70;;
43580;SDS011;29175;51.030;4.606;2022-08-07T00:16:18;5.45;;;2.97;;
43580;SDS011;29175;51.030;4.606;2022-08-07T00:18:44;5.22;;;2.90;;
43580;SDS011;29175;51.030;4.606;2022-08-07T00:21:11;4.22;;;2.72;;
43580;SDS011;29175;51.030;4.606;2022-08-07T00:23:43;7.05;;;3.03;;
43580;SDS011;29175;51.030;4.606;2022-08-07T00:26:09;8.27;;;3.13;;
43580;SDS011;29175;51.030;4.606;2022-08-07T00:28:36;8.95;;;3.05;;
43580;SDS011;29175;51.030;4.606;2022-08-07T00:31:08;5.15;;;3.28;;
43580;SDS011;29175;51.030;4.606;2022-08-07T00:33:37;6.45;;;3.30;;
43580;SDS011;29175;51.030;4.606;2022-08-07T00:36:05;6.87;;;3.70;;
43580;SDS011;29175;51.030;4.606;2022-08-07T00:38:32;5.88;;;3.47;;
43580;SDS011;29175;51.030;4.606;2022-08-07T00:41:04;5.63;;;3.33;;
43580;SDS011;29175;51.030;4.606;2022-08-07T00:46:02;6.45;;;3.33;;
43580;SDS011;29175;51.030;4.606;2022-08-07T00:48:29;6.53;;;3.47;;
43580;SDS011;29175;51.030;4.606;2022-08-07T00:50:55;8.32;;;3.58;;
43580;SDS011;29175;51.030;4.606;2022-08-07T00:53:24;6.95;;;3.42;;
43580;SDS011;29175;51.030;4.606;2022-08-07T00:55:53;10.80;;;3.30;;
43580;SDS011;29175;51.030;4.606;2022-08-07T00:58:19;5.72;;;3.50;;
43580;SDS011;29175;51.030;4.606;2022-08-07T01:00:48;5.53;;;3.22;;
43580;SDS011;29175;51.030;4.606;2022-08-07T01:03:17;9.60;;;3.67;;
43580;SDS011;29175;51.030;4.606;2022-08-07T01:05:46;6.85;;;3.40;;
43580;SDS011;29175;51.030;4.606;2022-08-07T01:08:15;4.53;;;3.20;;
43580;SDS011;29175;51.030;4.606;2022-08-07T01:10:43;5.80;;;3.05;;
43580;SDS011;29175;51.030;4.606;2022-08-07T01:13:08;6.53;;;3.55;;
43580;SDS011;29175;51.030;4.606;2022-08-07T01:20:36;7.88;;;3.47;;
43580;SDS011;29175;51.030;4.606;2022-08-07T01:25:37;6.85;;;3.25;;
43580;SDS011;29175;51.030;4.606;2022-08-07T01:30:34;8.88;;;3.78;;
43580;SDS011;29175;51.030;4.606;2022-08-07T01:33:01;9.40;;;3.85;;
43580;SDS011;29175;51.030;4.606;2022-08-07T01:35:30;8.07;;;3.90;;
43580;SDS011;29175;51.030;4.606;2022-08-07T01:40:28;8.48;;;4.75;;
43580;SDS011;29175;51.030;4.606;2022-08-07T01:45:26;8.10;;;4.50;;
43580;SDS011;29175;51.030;4.606;2022-08-07T01:47:52;7.60;;;4.40;;
43580;SDS011;29175;51.030;4.606;2022-08-07T01:50:21;6.80;;;4.32;;
43580;SDS011;29175;51.030;4.606;2022-08-07T01:52:55;8.93;;;4.35;;
43580;SDS011;29175;51.030;4.606;2022-08-07T01:55:26;12.80;;;4.78;;
43580;SDS011;29175;51.030;4.606;2022-08-07T01:58:01;13.27;;;5.18;;
43580;SDS011;29175;51.030;4.606;2022-08-07T02:00:37;8.30;;;4.57;;
43580;SDS011;29175;51.030;4.606;2022-08-07T02:03:12;9.60;;;4.65;;
43580;SDS011;29175;51.030;4.606;2022-08-07T02:08:10;11.95;;;4.85;;
43580;SDS011;29175;51.030;4.606;2022-08-07T02:10:41;14.15;;;5.10;;
43580;SDS011;29175;51.030;4.606;2022-08-07T02:13:08;9.52;;;4.43;;
43580;SDS011;29175;51.030;4.606;2022-08-07T02:15:38;7.22;;;4.45;;
43580;SDS011;29175;51.030;4.606;2022-08-07T02:18:11;10.20;;;5.07;;
43580;SDS011;29175;51.030;4.606;2022-08-07T02:20:41;12.70;;;5.10;;
43580;SDS011;29175;51.030;4.606;2022-08-07T02:23:08;9.23;;;5.43;;
43580;SDS011;29175;51.030;4.606;2022-08-07T02:25:37;11.20;;;5.32;;
43580;SDS011;29175;51.030;4.606;2022-08-07T02:28:05;14.67;;;5.63;;
43580;SDS011;29175;51.030;4.606;2022-08-07T02:30:35;11.45;;;5.18;;
43580;SDS011;29175;51.030;4.606;2022-08-07T02:33:06;11.27;;;5.13;;
43580;SDS011;29175;51.030;4.606;2022-08-07T02:35:33;11.90;;;5.38;;
43580;SDS011;29175;51.030;4.606;2022-08-07T02:38:02;8.75;;;4.90;;
43580;SDS011;29175;51.030;4.606;2022-08-07T02:40:32;8.60;;;5.17;;
43580;SDS011;29175;51.030;4.606;2022-08-07T02:43:02;10.38;;;5.30;;
43580;SDS011;29175;51.030;4.606;2022-08-07T02:45:31;10.85;;;5.40;;
43580;SDS011;29175;51.030;4.606;2022-08-07T02:47:59;11.93;;;6.13;;
43580;SDS011;29175;51.030;4.606;2022-08-07T02:50:28;13.02;;;6.00;;
43580;SDS011;29175;51.030;4.606;2022-08-07T02:53:06;11.63;;;5.55;;
43580;SDS011;29175;51.030;4.606;2022-08-07T02:55:36;9.70;;;5.50;;
43580;SDS011;29175;51.030;4.606;2022-08-07T02:58:05;10.82;;;5.47;;
43580;SDS011;29175;51.030;4.606;2022-08-07T03:00:35;16.10;;;6.38;;
43580;SDS011;29175;51.030;4.606;2022-08-07T03:05:36;12.13;;;6.05;;
43580;SDS011;29175;51.030;4.606;2022-08-07T03:08:04;14.60;;;5.50;;
43580;SDS011;29175;51.030;4.606;2022-08-07T03:10:35;11.37;;;5.73;;
43580;SDS011;29175;51.030;4.606;2022-08-07T03:13:08;13.70;;;6.30;;
43580;SDS011;29175;51.030;4.606;2022-08-07T03:15:34;10.10;;;6.25;;
43580;SDS011;29175;51.030;4.606;2022-08-07T03:18:02;15.68;;;6.30;;
43580;SDS011;29175;51.030;4.606;2022-08-07T03:20:31;12.88;;;6.22;;
43580;SDS011;29175;51.030;4.606;2022-08-07T03:22:58;10.75;;;5.95;;
43580;SDS011;29175;51.030;4.606;2022-08-07T03:25:29;13.77;;;6.35;;
43580;SDS011;29175;51.030;4.606;2022-08-07T03:28:00;12.13;;;5.43;;
43580;SDS011;29175;51.030;4.606;2022-08-07T03:32:59;9.68;;;5.57;;
43580;SDS011;29175;51.030;4.606;2022-08-07T03:35:27;10.82;;;5.90;;
43580;SDS011;29175;51.030;4.606;2022-08-07T03:37:59;9.30;;;5.30;;
43580;SDS011;29175;51.030;4.606;2022-08-07T03:40:29;14.27;;;6.15;;
43580;SDS011;29175;51.030;4.606;2022-08-07T03:42:57;10.32;;;5.47;;
43580;SDS011;29175;51.030;4.606;2022-08-07T03:45:24;12.82;;;6.60;;
43580;SDS011;29175;51.030;4.606;2022-08-07T03:47:53;13.25;;;6.00;;
43580;SDS011;29175;51.030;4.606;2022-08-07T03:50:23;11.10;;;6.03;;
43580;SDS011;29175;51.030;4.606;2022-08-07T03:52:51;11.73;;;6.20;;
43580;SDS011;29175;51.030;4.606;2022-08-07T03:55:17;12.63;;;5.88;;
43580;SDS011;29175;51.030;4.606;2022-08-07T03:57:46;11.18;;;6.28;;
43580;SDS011;29175;51.030;4.606;2022-08-07T04:00:14;12.13;;;6.00;;
43580;SDS011;29175;51.030;4.606;2022-08-07T04:05:11;13.65;;;6.82;;
43580;SDS011;29175;51.030;4.606;2022-08-07T04:07:45;11.07;;;6.30;;
43580;SDS011;29175;51.030;4.606;2022-08-07T04:10:15;12.80;;;6.53;;
43580;SDS011;29175;51.030;4.606;2022-08-07T04:12:42;14.63;;;6.95;;
43580;SDS011;29175;51.030;4.606;2022-08-07T04:15:09;19.13;;;7.05;;
43580;SDS011;29175;51.030;4.606;2022-08-07T04:22:42;18.45;;;6.55;;
43580;SDS011;29175;51.030;4.606;2022-08-07T04:25:10;15.32;;;6.72;;
43580;SDS011;29175;51.030;4.606;2022-08-07T04:27:43;14.23;;;6.18;;
43580;SDS011;29175;51.030;4.606;2022-08-07T04:30:09;13.90;;;6.80;;
43580;SDS011;29175;51.030;4.606;2022-08-07T04:32:37;11.57;;;6.43;;
43580;SDS011;29175;51.030;4.606;2022-08-07T04:35:05;15.52;;;7.28;;
43580;SDS011;29175;51.030;4.606;2022-08-07T04:37:34;12.70;;;6.55;;
43580;SDS011;29175;51.030;4.606;2022-08-07T04:40:02;14.90;;;6.40;;
43580;SDS011;29175;51.030;4.606;2022-08-07T04:42:30;14.75;;;7.78;;
43580;SDS011;29175;51.030;4.606;2022-08-07T04:45:02;12.85;;;7.15;;
43580;SDS011;29175;51.030;4.606;2022-08-07T04:53:04;15.98;;;7.57;;
43580;SDS011;29175;51.030;4.606;2022-08-07T05:06:46;19.02;;;9.30;;
43580;SDS011;29175;51.030;4.606;2022-08-07T05:12:09;22.92;;;8.63;;
43580;SDS011;29175;51.030;4.606;2022-08-07T05:14:45;18.27;;;8.50;;
43580;SDS011;29175;51.030;4.606;2022-08-07T05:17:13;16.25;;;7.90;;
43580;SDS011;29175;51.030;4.606;2022-08-07T05:19:46;17.92;;;8.45;;
43580;SDS011;29175;51.030;4.606;2022-08-07T05:22:16;14.57;;;7.47;;
43580;SDS011;29175;51.030;4.606;2022-08-07T05:24:52;20.55;;;9.60;;
43580;SDS011;29175;51.030;4.606;2022-08-07T05:27:29;17.00;;;8.38;;
43580;SDS011;29175;51.030;4.606;2022-08-07T05:29:59;22.90;;;8.70;;
43580;SDS011;29175;51.030;4.606;2022-08-07T05:37:28;16.50;;;9.10;;
43580;SDS011;29175;51.030;4.606;2022-08-07T05:39:55;17.58;;;8.52;;
43580;SDS011;29175;51.030;4.606;2022-08-07T05:42:24;17.75;;;9.00;;
43580;SDS011;29175;51.030;4.606;2022-08-07T05:44:53;19.70;;;7.53;;
43580;SDS011;29175;51.030;4.606;2022-08-07T05:47:22;18.83;;;8.35;;
43580;SDS011;29175;51.030;4.606;2022-08-07T05:49:52;15.65;;;8.18;;
43580;SDS011;29175;51.030;4.606;2022-08-07T05:52:20;17.40;;;7.65;;
43580;SDS011;29175;51.030;4.606;2022-08-07T05:54:49;16.17;;;8.18;;
43580;SDS011;29175;51.030;4.606;2022-08-07T05:57:14;19.30;;;7.88;;
43580;SDS011;29175;51.030;4.606;2022-08-07T05:59:42;17.92;;;8.20;;
43580;SDS011;29175;51.030;4.606;2022-08-07T06:02:14;16.17;;;7.65;;
43580;SDS011;29175;51.030;4.606;2022-08-07T06:04:47;14.57;;;7.00;;
43580;SDS011;29175;51.030;4.606;2022-08-07T06:07:18;16.35;;;7.43;;
43580;SDS011;29175;51.030;4.606;2022-08-07T06:09:44;15.60;;;7.63;;
43580;SDS011;29175;51.030;4.606;2022-08-07T06:12:15;16.58;;;8.20;;
43580;SDS011;29175;51.030;4.606;2022-08-07T06:14:44;14.98;;;7.28;;
43580;SDS011;29175;51.030;4.606;2022-08-07T06:19:40;14.45;;;7.70;;
43580;SDS011;29175;51.030;4.606;2022-08-07T06:22:06;15.75;;;7.60;;
43580;SDS011;29175;51.030;4.606;2022-08-07T06:27:02;12.23;;;6.38;;
43580;SDS011;29175;51.030;4.606;2022-08-07T06:29:28;13.95;;;6.20;;
43580;SDS011;29175;51.030;4.606;2022-08-07T06:34:24;12.40;;;6.03;;
43580;SDS011;29175;51.030;4.606;2022-08-07T06:36:51;12.63;;;6.18;;
43580;SDS011;29175;51.030;4.606;2022-08-07T06:39:19;19.35;;;5.93;;
43580;SDS011;29175;51.030;4.606;2022-08-07T06:41:51;17.58;;;5.93;;
43580;SDS011;29175;51.030;4.606;2022-08-07T06:44:27;15.82;;;6.18;;
43580;SDS011;29175;51.030;4.606;2022-08-07T06:46:53;9.80;;;4.97;;
43580;SDS011;29175;51.030;4.606;2022-08-07T06:49:22;14.68;;;4.82;;
43580;SDS011;29175;51.030;4.606;2022-08-07T06:51:50;11.30;;;5.13;;
43580;SDS011;29175;51.030;4.606;2022-08-07T06:54:19;10.45;;;4.10;;
43580;SDS011;29175;51.030;4.606;2022-08-07T06:56:48;7.13;;;3.88;;
43580;SDS011;29175;51.030;4.606;2022-08-07T06:59:32;8.07;;;3.78;;
43580;SDS011;29175;51.030;4.606;2022-08-07T07:02:00;9.07;;;3.70;;
43580;SDS011;29175;51.030;4.606;2022-08-07T07:07:00;9.07;;;3.70;;
43580;SDS011;29175;51.030;4.606;2022-08-07T07:09:29;10.05;;;3.20;;
43580;SDS011;29175;51.030;4.606;2022-08-07T07:15:04;8.30;;;3.78;;
43580;SDS011;29175;51.030;4.606;2022-08-07T07:20:20;5.53;;;3.15;;
43580;SDS011;29175;51.030;4.606;2022-08-07T07:25:19;6.47;;;3.13;;
43580;SDS011;29175;51.030;4.606;2022-08-07T07:30:32;8.57;;;3.60;;
43580;SDS011;29175;51.030;4.606;2022-08-07T07:35:32;8.98;;;3.60;;
43580;SDS011;29175;51.030;4.606;2022-08-07T07:38:04;5.85;;;2.90;;
43580;SDS011;29175;51.030;4.606;2022-08-07T07:40:32;7.40;;;3.30;;
43580;SDS011;29175;51.030;4.606;2022-08-07T07:43:07;6.85;;;3.58;;
43580;SDS011;29175;51.030;4.606;2022-08-07T07:45:36;8.02;;;3.25;;
43580;SDS011;29175;51.030;4.606;2022-08-07T07:48:06;8.20;;;3.20;;
43580;SDS011;29175;51.030;4.606;2022-08-07T07:50:37;7.45;;;3.30;;
43580;SDS011;29175;51.030;4.606;2022-08-07T07:53:06;5.95;;;3.58;;
43580;SDS011;29175;51.030;4.606;2022-08-07T07:55:32;6.93;;;3.40;;
43580;SDS011;29175;51.030;4.606;2022-08-07T07:58:02;6.53;;;3.30;;
43580;SDS011;29175;51.030;4.606;2022-08-07T08:03:09;6.18;;;3.00;;
43580;SDS011;29175;51.030;4.606;2022-08-07T08:05:39;3.50;;;2.30;;
43580;SDS011;29175;51.030;4.606;2022-08-07T08:08:06;7.47;;;2.80;;
43580;SDS011;29175;51.030;4.606;2022-08-07T08:10:35;7.38;;;2.53;;
43580;SDS011;29175;51.030;4.606;2022-08-07T08:13:02;5.33;;;2.80;;
43580;SDS011;29175;51.030;4.606;2022-08-07T08:15:30;7.93;;;3.30;;
43580;SDS011;29175;51.030;4.606;2022-08-07T08:18:02;5.90;;;2.58;;
43580;SDS011;29175;51.030;4.606;2022-08-07T08:20:31;5.80;;;2.97;;
43580;SDS011;29175;51.030;4.606;2022-08-07T08:22:59;6.18;;;2.90;;
43580;SDS011;29175;51.030;4.606;2022-08-07T08:25:46;8.80;;;2.85;;
43580;SDS011;29175;51.030;4.606;2022-08-07T08:28:38;3.77;;;2.20;;
43580;SDS011;29175;51.030;4.606;2022-08-07T08:31:08;4.15;;;2.42;;
43580;SDS011;29175;51.030;4.606;2022-08-07T08:33:39;6.22;;;2.50;;
43580;SDS011;29175;51.030;4.606;2022-08-07T08:36:07;4.47;;;2.43;;
43580;SDS011;29175;51.030;4.606;2022-08-07T08:38:36;8.20;;;2.85;;
43580;SDS011;29175;51.030;4.606;2022-08-07T08:43:48;6.30;;;2.47;;
43580;SDS011;29175;51.030;4.606;2022-08-07T08:52:19;8.05;;;2.67;;
43580;SDS011;29175;51.030;4.606;2022-08-07T08:54:58;5.95;;;2.65;;
43580;SDS011;29175;51.030;4.606;2022-08-07T08:57:39;7.30;;;2.80;;
43580;SDS011;29175;51.030;4.606;2022-08-07T09:00:13;11.05;;;2.97;;
43580;SDS011;29175;51.030;4.606;2022-08-07T09:02:51;4.73;;;2.60;;
43580;SDS011;29175;51.030;4.606;2022-08-07T09:19:56;5.10;;;2.35;;
43580;SDS011;29175;51.030;4.606;2022-08-07T09:25:43;5.18;;;2.45;;
43580;SDS011;29175;51.030;4.606;2022-08-07T09:28:18;4.25;;;1.92;;
43580;SDS011;29175;51.030;4.606;2022-08-07T09:36:31;5.35;;;1.67;;
43580;SDS011;29175;51.030;4.606;2022-08-07T09:50:45;5.05;;;1.70;;
43580;SDS011;29175;51.030;4.606;2022-08-07T09:53:26;3.15;;;1.85;;
43580;SDS011;29175;51.030;4.606;2022-08-07T09:56:02;4.70;;;1.63;;
43580;SDS011;29175;51.030;4.606;2022-08-07T09:58:52;6.65;;;2.08;;
43580;SDS011;29175;51.030;4.606;2022-08-07T10:01:56;4.63;;;1.70;;
43580;SDS011;29175;51.030;4.606;2022-08-07T10:04:37;3.70;;;1.80;;
43580;SDS011;29175;51.030;4.606;2022-08-07T10:10:51;5.05;;;1.88;;
43580;SDS011;29175;51.030;4.606;2022-08-07T10:28:06;4.00;;;1.55;;
43580;SDS011;29175;51.030;4.606;2022-08-07T10:30:42;5.07;;;1.80;;
43580;SDS011;29175;51.030;4.606;2022-08-07T10:41:45;4.95;;;1.73;;
43580;SDS011;29175;51.030;4.606;2022-08-07T10:44:26;3.25;;;1.65;;
43580;SDS011;29175;51.030;4.606;2022-08-07T10:47:12;2.78;;;1.70;;
43580;SDS011;29175;51.030;4.606;2022-08-07T10:50:51;2.65;;;1.55;;
43580;SDS011;29175;51.030;4.606;2022-08-07T10:53:16;4.45;;;1.65;;
43580;SDS011;29175;51.030;4.606;2022-08-07T10:58:36;3.22;;;1.70;;
43580;SDS011;29175;51.030;4.606;2022-08-07T11:06:34;3.65;;;1.92;;
43580;SDS011;29175;51.030;4.606;2022-08-07T11:14:45;2.72;;;1.77;;
43580;SDS011;29175;51.030;4.606;2022-08-07T11:17:18;2.35;;;1.50;;
43580;SDS011;29175;51.030;4.606;2022-08-07T11:22:41;5.25;;;1.50;;
43580;SDS011;29175;51.030;4.606;2022-08-07T11:28:05;3.40;;;2.05;;
43580;SDS011;29175;51.030;4.606;2022-08-07T11:39:36;4.60;;;1.90;;
43580;SDS011;29175;51.030;4.606;2022-08-07T11:41:45;3.95;;;1.60;;
43580;SDS011;29175;51.030;4.606;2022-08-07T11:44:33;4.45;;;1.67;;
43580;SDS011;29175;51.030;4.606;2022-08-07T11:55:32;4.13;;;1.85;;
43580;SDS011;29175;51.030;4.606;2022-08-07T12:01:23;2.67;;;1.95;;
43580;SDS011;29175;51.030;4.606;2022-08-07T12:12:42;4.07;;;1.83;;
43580;SDS011;29175;51.030;4.606;2022-08-07T12:15:20;4.60;;;1.80;;
43580;SDS011;29175;51.030;4.606;2022-08-07T12:18:14;3.13;;;1.88;;
43580;SDS011;29175;51.030;4.606;2022-08-07T12:20:46;3.90;;;1.80;;
43580;SDS011;29175;51.030;4.606;2022-08-07T12:26:49;6.05;;;1.65;;
43580;SDS011;29175;51.030;4.606;2022-08-07T12:29:40;4.95;;;1.50;;
43580;SDS011;29175;51.030;4.606;2022-08-07T12:32:19;4.05;;;1.75;;
43580;SDS011;29175;51.030;4.606;2022-08-07T12:35:03;3.15;;;1.65;;
43580;SDS011;29175;51.030;4.606;2022-08-07T12:37:30;2.92;;;1.40;;
43580;SDS011;29175;51.030;4.606;2022-08-07T12:39:59;5.28;;;1.70;;
43580;SDS011;29175;51.030;4.606;2022-08-07T12:42:28;2.93;;;1.57;;
43580;SDS011;29175;51.030;4.606;2022-08-07T12:44:59;3.63;;;1.50;;
43580;SDS011;29175;51.030;4.606;2022-08-07T12:47:42;3.97;;;1.90;;
43580;SDS011;29175;51.030;4.606;2022-08-07T12:55:59;4.15;;;1.77;;
43580;SDS011;29175;51.030;4.606;2022-08-07T12:58:36;3.60;;;1.88;;
43580;SDS011;29175;51.030;4.606;2022-08-07T13:15:50;4.45;;;1.70;;
43580;SDS011;29175;51.030;4.606;2022-08-07T13:17:51;5.28;;;1.17;;
43580;SDS011;29175;51.030;4.606;2022-08-07T13:28:24;6.25;;;1.42;;
43580;SDS011;29175;51.030;4.606;2022-08-07T13:31:16;3.13;;;1.50;;
43580;SDS011;29175;51.030;4.606;2022-08-07T13:33:54;4.32;;;1.75;;
43580;SDS011;29175;51.030;4.606;2022-08-07T13:36:31;3.08;;;1.27;;
43580;SDS011;29175;51.030;4.606;2022-08-07T13:39:08;2.75;;;1.42;;
43580;SDS011;29175;51.030;4.606;2022-08-07T13:41:42;2.58;;;1.50;;
43580;SDS011;29175;51.030;4.606;2022-08-07T13:44:13;4.22;;;1.60;;
43580;SDS011;29175;51.030;4.606;2022-08-07T13:46:46;5.50;;;1.85;;
43580;SDS011;29175;51.030;4.606;2022-08-07T13:49:15;4.43;;;1.70;;
43580;SDS011;29175;51.030;4.606;2022-08-07T13:51:44;5.60;;;1.67;;
43580;SDS011;29175;51.030;4.606;2022-08-07T13:54:14;3.40;;;1.77;;
43580;SDS011;29175;51.030;4.606;2022-08-07T13:56:42;4.05;;;1.50;;
43580;SDS011;29175;51.030;4.606;2022-08-07T13:59:24;3.85;;;1.80;;
43580;SDS011;29175;51.030;4.606;2022-08-07T14:04:49;3.88;;;1.50;;
43580;SDS011;29175;51.030;4.606;2022-08-07T14:07:20;3.20;;;1.50;;
43580;SDS011;29175;51.030;4.606;2022-08-07T14:09:52;1.45;;;1.10;;
43580;SDS011;29175;51.030;4.606;2022-08-07T14:12:24;3.10;;;1.42;;
43580;SDS011;29175;51.030;4.606;2022-08-07T14:17:34;6.30;;;1.50;;
43580;SDS011;29175;51.030;4.606;2022-08-07T14:20:09;2.83;;;1.20;;
43580;SDS011;29175;51.030;4.606;2022-08-07T14:22:39;3.58;;;1.60;;
43580;SDS011;29175;51.030;4.606;2022-08-07T14:25:10;2.03;;;1.10;;
43580;SDS011;29175;51.030;4.606;2022-08-07T14:27:45;2.53;;;1.48;;
43580;SDS011;29175;51.030;4.606;2022-08-07T14:30:16;2.40;;;1.30;;
43580;SDS011;29175;51.030;4.606;2022-08-07T14:32:47;2.38;;;1.17;;
43580;SDS011;29175;51.030;4.606;2022-08-07T14:35:25;3.45;;;1.30;;
43580;SDS011;29175;51.030;4.606;2022-08-07T14:37:55;2.78;;;1.40;;
43580;SDS011;29175;51.030;4.606;2022-08-07T14:40:23;2.90;;;1.20;;
43580;SDS011;29175;51.030;4.606;2022-08-07T14:42:55;1.98;;;1.08;;
43580;SDS011;29175;51.030;4.606;2022-08-07T14:45:41;2.28;;;1.23;;
43580;SDS011;29175;51.030;4.606;2022-08-07T14:48:12;4.93;;;1.60;;
43580;SDS011;29175;51.030;4.606;2022-08-07T14:50:43;4.13;;;1.23;;
43580;SDS011;29175;51.030;4.606;2022-08-07T14:53:12;3.90;;;1.42;;
43580;SDS011;29175;51.030;4.606;2022-08-07T14:55:40;3.80;;;1.38;;
43580;SDS011;29175;51.030;4.606;2022-08-07T14:58:14;6.70;;;1.33;;
43580;SDS011;29175;51.030;4.606;2022-08-07T15:00:46;4.82;;;1.40;;
43580;SDS011;29175;51.030;4.606;2022-08-07T15:03:16;2.55;;;1.40;;
43580;SDS011;29175;51.030;4.606;2022-08-07T15:05:47;2.78;;;1.30;;
43580;SDS011;29175;51.030;4.606;2022-08-07T15:08:21;4.60;;;1.30;;
43580;SDS011;29175;51.030;4.606;2022-08-07T15:10:54;3.88;;;1.30;;
43580;SDS011;29175;51.030;4.606;2022-08-07T15:15:59;6.53;;;1.55;;
43580;SDS011;29175;51.030;4.606;2022-08-07T15:18:46;4.28;;;1.10;;
43580;SDS011;29175;51.030;4.606;2022-08-07T15:21:19;5.63;;;1.50;;
43580;SDS011;29175;51.030;4.606;2022-08-07T15:23:53;2.72;;;1.25;;
43580;SDS011;29175;51.030;4.606;2022-08-07T15:26:30;5.68;;;1.20;;
43580;SDS011;29175;51.030;4.606;2022-08-07T15:29:00;2.88;;;1.25;;
43580;SDS011;29175;51.030;4.606;2022-08-07T15:33:57;2.95;;;1.10;;
43580;SDS011;29175;51.030;4.606;2022-08-07T15:36:26;5.88;;;1.38;;
43580;SDS011;29175;51.030;4.606;2022-08-07T15:38:52;4.10;;;1.27;;
43580;SDS011;29175;51.030;4.606;2022-08-07T15:41:23;1.73;;;1.20;;
43580;SDS011;29175;51.030;4.606;2022-08-07T15:44:03;2.28;;;1.23;;
43580;SDS011;29175;51.030;4.606;2022-08-07T15:46:33;2.63;;;1.30;;
43580;SDS011;29175;51.030;4.606;2022-08-07T15:49:05;1.85;;;1.02;;
43580;SDS011;29175;51.030;4.606;2022-08-07T15:54:05;2.45;;;1.30;;
43580;SDS011;29175;51.030;4.606;2022-08-07T15:59:03;5.07;;;1.30;;
43580;SDS011;29175;51.030;4.606;2022-08-07T16:01:38;3.08;;;1.58;;
43580;SDS011;29175;51.030;4.606;2022-08-07T16:04:09;3.90;;;1.50;;
43580;SDS011;29175;51.030;4.606;2022-08-07T16:14:28;2.58;;;1.00;;
43580;SDS011;29175;51.030;4.606;2022-08-07T16:34:59;4.28;;;1.38;;
43580;SDS011;29175;51.030;4.606;2022-08-07T17:02:47;5.13;;;1.27;;
43580;SDS011;29175;51.030;4.606;2022-08-07T17:05:59;2.85;;;1.33;;
43580;SDS011;29175;51.030;4.606;2022-08-07T17:08:34;2.42;;;1.45;;
43580;SDS011;29175;51.030;4.606;2022-08-07T17:17:01;3.72;;;1.50;;
43580;SDS011;29175;51.030;4.606;2022-08-07T17:19:34;4.40;;;1.55;;
43580;SDS011;29175;51.030;4.606;2022-08-07T17:22:27;2.05;;;1.30;;
43580;SDS011;29175;51.030;4.606;2022-08-07T17:25:19;4.25;;;1.70;;
43580;SDS011;29175;51.030;4.606;2022-08-07T17:28:05;4.30;;;1.60;;
43580;SDS011;29175;51.030;4.606;2022-08-07T17:30:41;4.35;;;1.42;;
43580;SDS011;29175;51.030;4.606;2022-08-07T17:33:13;2.92;;;1.55;;
43580;SDS011;29175;51.030;4.606;2022-08-07T17:38:45;2.72;;;1.80;;
43580;SDS011;29175;51.030;4.606;2022-08-07T17:41:47;3.22;;;1.80;;
43580;SDS011;29175;51.030;4.606;2022-08-07T17:45:03;5.85;;;2.22;;
43580;SDS011;29175;51.030;4.606;2022-08-07T17:47:23;3.67;;;2.10;;
43580;SDS011;29175;51.030;4.606;2022-08-07T17:50:05;6.13;;;2.50;;
43580;SDS011;29175;51.030;4.606;2022-08-07T17:53:09;5.25;;;2.15;;
43580;SDS011;29175;51.030;4.606;2022-08-07T17:58:57;6.38;;;2.50;;
43580;SDS011;29175;51.030;4.606;2022-08-07T18:06:45;5.47;;;2.20;;
43580;SDS011;29175;51.030;4.606;2022-08-07T18:11:50;7.97;;;2.72;;
43580;SDS011;29175;51.030;4.606;2022-08-07T18:17:39;7.07;;;2.47;;
43580;SDS011;29175;51.030;4.606;2022-08-07T18:20:30;5.05;;;2.20;;
43580;SDS011;29175;51.030;4.606;2022-08-07T18:23:08;4.95;;;2.45;;
43580;SDS011;29175;51.030;4.606;2022-08-07T18:47:52;5.57;;;2.20;;
43580;SDS011;29175;51.030;4.606;2022-08-07T18:53:41;8.48;;;2.20;;
43580;SDS011;29175;51.030;4.606;2022-08-07T19:01:52;5.50;;;2.63;;
43580;SDS011;29175;51.030;4.606;2022-08-07T19:07:31;7.50;;;2.42;;
43580;SDS011;29175;51.030;4.606;2022-08-07T19:12:43;8.50;;;2.75;;
43580;SDS011;29175;51.030;4.606;2022-08-07T19:23:40;5.22;;;2.58;;
43580;SDS011;29175;51.030;4.606;2022-08-07T19:26:10;8.82;;;2.25;;
43580;SDS011;29175;51.030;4.606;2022-08-07T19:28:42;7.45;;;2.83;;
43580;SDS011;29175;51.030;4.606;2022-08-07T19:31:24;5.53;;;2.33;;
43580;SDS011;29175;51.030;4.606;2022-08-07T19:33:53;8.27;;;2.70;;
43580;SDS011;29175;51.030;4.606;2022-08-07T19:41:27;7.03;;;2.75;;
43580;SDS011;29175;51.030;4.606;2022-08-07T19:43:58;5.13;;;2.58;;
43580;SDS011;29175;51.030;4.606;2022-08-07T19:46:31;11.15;;;2.75;;
43580;SDS011;29175;51.030;4.606;2022-08-07T19:49:15;7.70;;;2.33;;
43580;SDS011;29175;51.030;4.606;2022-08-07T19:51:49;3.70;;;2.20;;
43580;SDS011;29175;51.030;4.606;2022-08-07T19:54:17;11.30;;;2.70;;
43580;SDS011;29175;51.030;4.606;2022-08-07T19:56:45;6.25;;;2.70;;
43580;SDS011;29175;51.030;4.606;2022-08-07T19:59:16;7.85;;;2.72;;
43580;SDS011;29175;51.030;4.606;2022-08-07T20:01:46;5.80;;;2.72;;
43580;SDS011;29175;51.030;4.606;2022-08-07T20:04:19;8.95;;;2.80;;
43580;SDS011;29175;51.030;4.606;2022-08-07T20:06:49;7.88;;;2.70;;
43580;SDS011;29175;51.030;4.606;2022-08-07T20:09:18;6.55;;;2.78;;
43580;SDS011;29175;51.030;4.606;2022-08-07T20:11:48;5.57;;;2.35;;
43580;SDS011;29175;51.030;4.606;2022-08-07T20:16:53;8.15;;;2.92;;
43580;SDS011;29175;51.030;4.606;2022-08-07T20:19:26;8.50;;;2.60;;
43580;SDS011;29175;51.030;4.606;2022-08-07T20:21:54;7.57;;;2.58;;
43580;SDS011;29175;51.030;4.606;2022-08-07T20:24:23;4.75;;;2.70;;
43580;SDS011;29175;51.030;4.606;2022-08-07T20:26:53;8.95;;;2.88;;
43580;SDS011;29175;51.030;4.606;2022-08-07T20:29:24;8.27;;;2.67;;
43580;SDS011;29175;51.030;4.606;2022-08-07T20:31:53;10.02;;;3.10;;
43580;SDS011;29175;51.030;4.606;2022-08-07T20:39:21;4.78;;;2.28;;
43580;SDS011;29175;51.030;4.606;2022-08-07T20:41:54;8.50;;;2.78;;
43580;SDS011;29175;51.030;4.606;2022-08-07T20:44:27;6.18;;;2.80;;
43580;SDS011;29175;51.030;4.606;2022-08-07T20:46:58;7.00;;;2.78;;
43580;SDS011;29175;51.030;4.606;2022-08-07T20:49:31;7.47;;;2.67;;
43580;SDS011;29175;51.030;4.606;2022-08-07T20:52:02;5.53;;;2.50;;
43580;SDS011;29175;51.030;4.606;2022-08-07T20:54:31;7.43;;;2.85;;
43580;SDS011;29175;51.030;4.606;2022-08-07T20:57:00;8.95;;;3.17;;
43580;SDS011;29175;51.030;4.606;2022-08-07T20:59:30;5.40;;;2.45;;
43580;SDS011;29175;51.030;4.606;2022-08-07T21:04:57;8.70;;;2.80;;
43580;SDS011;29175;51.030;4.606;2022-08-07T21:07:26;8.70;;;2.70;;
43580;SDS011;29175;51.030;4.606;2022-08-07T21:09:55;5.18;;;2.83;;
43580;SDS011;29175;51.030;4.606;2022-08-07T21:12:24;9.93;;;3.50;;
43580;SDS011;29175;51.030;4.606;2022-08-07T21:14:53;6.95;;;3.08;;
43580;SDS011;29175;51.030;4.606;2022-08-07T21:17:28;10.07;;;2.78;;
43580;SDS011;29175;51.030;4.606;2022-08-07T21:20:03;5.25;;;2.80;;
43580;SDS011;29175;51.030;4.606;2022-08-07T21:22:37;6.15;;;3.08;;
43580;SDS011;29175;51.030;4.606;2022-08-07T21:25:10;7.20;;;3.22;;
43580;SDS011;29175;51.030;4.606;2022-08-07T21:33:38;7.68;;;2.90;;
43580;SDS011;29175;51.030;4.606;2022-08-07T21:44:35;6.70;;;3.03;;
43580;SDS011;29175;51.030;4.606;2022-08-07T21:47:21;10.63;;;3.38;;
43580;SDS011;29175;51.030;4.606;2022-08-07T21:55:26;9.23;;;3.70;;
43580;SDS011;29175;51.030;4.606;2022-08-07T21:58:08;8.20;;;4.03;;
43580;SDS011;29175;51.030;4.606;2022-08-07T22:00:47;9.48;;;3.75;;